Aeroboteco Virtual Airlines! Uma nuvem a frente.



 INFORMAÇÕES METEOROLÓGICAS
METAR FOR KMHP
ADDS - METARS form results

(1853 UTC 05 June 2020)
Data provider http://aviationweather.gov/metar/data/
 
METAR text: KMHP 051835Z AUTO 22003KT 10SM SCT046 SCT090 32/21 A2997 RMK AO2 T03230210
Conditions at: KMHP observed 1835 UTC 05 June 2020
Temperature: 32.3°C (90°F)
Dewpoint: 21.0°C (70°F) [RH = 51%]
Pressure (altimeter): 29.97 inches Hg (1015.0 mb)
Winds: from the SW (220 degrees) at 3 MPH (3 knots; 1.5 m/s)
Visibility: 10 or more miles (16+ km)
Ceiling: at least 12,000 feet AGL
Clouds: scattered clouds at 4600 feet AGL
scattered clouds at 9000 feet AGL
Weather: automated observation with no human augmentation;
there may or may not be significant weather present at this time

METAR text: KMHP 051815Z AUTO 00000KT 10SM SCT044 SCT050 BKN090 32/22 A2997 RMK AO2 LTG DSNT NW T03170218
Conditions at: KMHP observed 1815 UTC 05 June 2020
Temperature: 31.7°C (89°F)
Dewpoint: 21.8°C (71°F) [RH = 56%]
Pressure (altimeter): 29.97 inches Hg (1015.0 mb)
Winds: calm
Visibility: 10 or more miles (16+ km)
Ceiling: 9000 feet AGL
Clouds: scattered clouds at 4400 feet AGL
scattered clouds at 5000 feet AGL
broken clouds at 9000 feet AGL
Weather: automated observation with no human augmentation;
there may or may not be significant weather present at this time

METAR text: KMHP 051755Z AUTO 22004KT 10SM BKN044 BKN050 OVC065 31/21 A2999 RMK AO2 T03110215 10326 20231
Conditions at: KMHP observed 1755 UTC 05 June 2020
Temperature: 31.1°C (88°F)
Dewpoint: 21.5°C (71°F) [RH = 57%]
Pressure (altimeter): 29.99 inches Hg (1015.7 mb)
Winds: from the SW (220 degrees) at 5 MPH (4 knots; 2.1 m/s)
Visibility: 10 or more miles (16+ km)
Ceiling: 4400 feet AGL
Clouds: broken clouds at 4400 feet AGL
broken clouds at 5000 feet AGL
overcast cloud deck at 6500 feet AGL
Weather: automated observation with no human augmentation;
there may or may not be significant weather present at this time

 MAPA DO AEROPORTO

 INFORMAÇÕES DA PISTA
Pista 10 Tamanho da pista 3612 ft Largura da pista 75 ft
Elevação da pista 195 ft Ranhura da pista 0 ft Proa da pista 93
Pista 28 Tamanho da pista 3612 ft Largura da pista 75 ft
Elevação da pista 196 ft Ranhura da pista 0 ft Proa da pista 273

 FREQUÊNCIAS DO AEROPORTO
Tipo CNTR Nome JACKSONVIL Frequência 132.5 MHZ
Tipo UNIC Nome CTAF/UNICO Frequência 123 MHZ

 AUXÍLIOS DE NAVEGAÇÃO PRÓXIMOS AO AEROPORTO